Terminal Aerodrome Forecast
Issued by NWS Green Bay, WI

Home | Current Version | Previous Version | Graphics & Text | Print | Product List | Glossary On
Versions: 1 2 3 4 5 6 7 8 9 10 11 12 13 14 15 16 17 18 19 20 21 22 23 24 25 26 27 28 29 30 31 32
000
FTUS43 KGRB 211100
TAFGRB
TAF
KGRB 211126Z 2112/2212 VRB03KT 1SM -SHRA BR SCT060 OVC100
      TEMPO 2112/2113 1/4SM FG BKN002 BKN050
     FM211400 22007KT 4SM BR VCSH BKN040 OVC080
      TEMPO 2118/2122 2SM TSRA BR BKN025CB OVC040
     FM212200 32012KT P6SM SCT025 BKN040
     FM220200 33013G21KT P6SM SCT025=

USA.gov is the U.S. government's official web portal to all federal, state and local government web resources and services.